sensor_id;sensor_type;location;lat;lon;timestamp;temperature;humidity
14192;DHT22;7177;48.572;7.838;2023-03-19T00:02:06;11.30;99.90
14192;DHT22;7177;48.572;7.838;2023-03-19T00:04:32;11.40;99.90
14192;DHT22;7177;48.572;7.838;2023-03-19T00:06:57;11.40;99.90
14192;DHT22;7177;48.572;7.838;2023-03-19T00:09:23;11.40;99.90
14192;DHT22;7177;48.572;7.838;2023-03-19T00:11:49;11.50;99.90
14192;DHT22;7177;48.572;7.838;2023-03-19T00:14:15;11.50;99.90
14192;DHT22;7177;48.572;7.838;2023-03-19T00:16:41;11.50;99.90
14192;DHT22;7177;48.572;7.838;2023-03-19T00:19:07;11.50;99.90
14192;DHT22;7177;48.572;7.838;2023-03-19T00:21:33;11.40;99.90
14192;DHT22;7177;48.572;7.838;2023-03-19T00:23:59;11.40;99.90
14192;DHT22;7177;48.572;7.838;2023-03-19T00:26:29;11.40;99.90
14192;DHT22;7177;48.572;7.838;2023-03-19T00:28:55;11.40;99.90
14192;DHT22;7177;48.572;7.838;2023-03-19T00:31:21;11.40;99.90
14192;DHT22;7177;48.572;7.838;2023-03-19T00:33:47;11.30;99.90
14192;DHT22;7177;48.572;7.838;2023-03-19T00:36:12;11.30;99.90
14192;DHT22;7177;48.572;7.838;2023-03-19T00:38:40;11.30;99.90
14192;DHT22;7177;48.572;7.838;2023-03-19T00:41:06;11.30;99.90
14192;DHT22;7177;48.572;7.838;2023-03-19T00:43:31;11.30;99.90
14192;DHT22;7177;48.572;7.838;2023-03-19T00:45:57;11.30;99.90
14192;DHT22;7177;48.572;7.838;2023-03-19T00:48:23;11.40;99.90
14192;DHT22;7177;48.572;7.838;2023-03-19T00:50:49;11.40;99.90
14192;DHT22;7177;48.572;7.838;2023-03-19T00:53:15;11.30;99.90
14192;DHT22;7177;48.572;7.838;2023-03-19T00:55:41;11.20;99.90
14192;DHT22;7177;48.572;7.838;2023-03-19T00:58:07;11.10;99.90
14192;DHT22;7177;48.572;7.838;2023-03-19T01:00:34;11.00;99.90
14192;DHT22;7177;48.572;7.838;2023-03-19T01:03:01;10.90;99.90
14192;DHT22;7177;48.572;7.838;2023-03-19T01:05:26;10.90;99.90
14192;DHT22;7177;48.572;7.838;2023-03-19T01:07:52;10.90;99.90
14192;DHT22;7177;48.572;7.838;2023-03-19T01:10:19;11.00;99.90
14192;DHT22;7177;48.572;7.838;2023-03-19T01:12:45;10.90;99.90
14192;DHT22;7177;48.572;7.838;2023-03-19T01:15:10;10.90;99.90
14192;DHT22;7177;48.572;7.838;2023-03-19T01:17:36;10.90;99.90
14192;DHT22;7177;48.572;7.838;2023-03-19T01:20:03;10.90;99.90
14192;DHT22;7177;48.572;7.838;2023-03-19T01:22:29;10.90;99.90
14192;DHT22;7177;48.572;7.838;2023-03-19T01:24:54;10.80;99.90
14192;DHT22;7177;48.572;7.838;2023-03-19T01:27:20;10.80;99.90
14192;DHT22;7177;48.572;7.838;2023-03-19T01:29:46;10.80;99.90
14192;DHT22;7177;48.572;7.838;2023-03-19T01:32:11;10.80;99.90
14192;DHT22;7177;48.572;7.838;2023-03-19T01:34:37;10.80;99.90
14192;DHT22;7177;48.572;7.838;2023-03-19T01:37:02;10.60;99.90
14192;DHT22;7177;48.572;7.838;2023-03-19T01:39:28;10.70;99.90
14192;DHT22;7177;48.572;7.838;2023-03-19T01:41:53;10.70;99.90
14192;DHT22;7177;48.572;7.838;2023-03-19T01:44:29;10.70;99.90
14192;DHT22;7177;48.572;7.838;2023-03-19T01:46:56;10.60;99.90
14192;DHT22;7177;48.572;7.838;2023-03-19T01:49:23;10.60;99.90
14192;DHT22;7177;48.572;7.838;2023-03-19T01:51:51;10.50;99.90
14192;DHT22;7177;48.572;7.838;2023-03-19T01:54:20;10.50;99.90
14192;DHT22;7177;48.572;7.838;2023-03-19T01:56:50;10.50;99.90
14192;DHT22;7177;48.572;7.838;2023-03-19T01:59:24;10.50;99.90
14192;DHT22;7177;48.572;7.838;2023-03-19T02:04:51;10.50;99.90
14192;DHT22;7177;48.572;7.838;2023-03-19T02:07:18;10.60;99.90
14192;DHT22;7177;48.572;7.838;2023-03-19T02:09:44;10.60;99.90
14192;DHT22;7177;48.572;7.838;2023-03-19T02:12:11;10.70;99.90
14192;DHT22;7177;48.572;7.838;2023-03-19T02:14:37;10.70;99.90
14192;DHT22;7177;48.572;7.838;2023-03-19T02:17:03;10.70;99.90
14192;DHT22;7177;48.572;7.838;2023-03-19T02:20:41;10.70;99.90
14192;DHT22;7177;48.572;7.838;2023-03-19T02:22:34;10.70;99.90
14192;DHT22;7177;48.572;7.838;2023-03-19T02:25:24;10.70;99.90
14192;DHT22;7177;48.572;7.838;2023-03-19T02:27:52;10.80;99.90
14192;DHT22;7177;48.572;7.838;2023-03-19T02:30:22;10.80;99.90
14192;DHT22;7177;48.572;7.838;2023-03-19T02:32:49;10.80;99.90
14192;DHT22;7177;48.572;7.838;2023-03-19T02:35:14;10.80;99.90
14192;DHT22;7177;48.572;7.838;2023-03-19T02:37:40;10.80;99.90
14192;DHT22;7177;48.572;7.838;2023-03-19T02:40:17;10.80;99.90
14192;DHT22;7177;48.572;7.838;2023-03-19T02:42:43;10.80;99.90
14192;DHT22;7177;48.572;7.838;2023-03-19T02:45:10;10.80;99.90
14192;DHT22;7177;48.572;7.838;2023-03-19T02:47:35;10.80;99.90
14192;DHT22;7177;48.572;7.838;2023-03-19T02:50:01;10.80;99.90
14192;DHT22;7177;48.572;7.838;2023-03-19T02:52:26;10.80;99.90
14192;DHT22;7177;48.572;7.838;2023-03-19T02:54:52;10.80;99.90
14192;DHT22;7177;48.572;7.838;2023-03-19T02:57:18;10.80;99.90
14192;DHT22;7177;48.572;7.838;2023-03-19T02:59:43;10.80;99.90
14192;DHT22;7177;48.572;7.838;2023-03-19T03:02:09;10.80;99.90
14192;DHT22;7177;48.572;7.838;2023-03-19T03:04:35;10.80;99.90
14192;DHT22;7177;48.572;7.838;2023-03-19T03:07:02;10.80;99.90
14192;DHT22;7177;48.572;7.838;2023-03-19T03:09:28;10.80;99.90
14192;DHT22;7177;48.572;7.838;2023-03-19T03:11:53;10.80;99.90
14192;DHT22;7177;48.572;7.838;2023-03-19T03:14:19;10.70;99.90
14192;DHT22;7177;48.572;7.838;2023-03-19T03:16:45;10.70;99.90
14192;DHT22;7177;48.572;7.838;2023-03-19T03:19:10;10.70;99.90
14192;DHT22;7177;48.572;7.838;2023-03-19T03:21:36;10.70;99.90
14192;DHT22;7177;48.572;7.838;2023-03-19T03:24:02;10.70;99.90
14192;DHT22;7177;48.572;7.838;2023-03-19T03:26:27;10.80;99.90
14192;DHT22;7177;48.572;7.838;2023-03-19T03:28:53;10.80;99.90
14192;DHT22;7177;48.572;7.838;2023-03-19T03:31:19;10.80;99.90
14192;DHT22;7177;48.572;7.838;2023-03-19T03:33:44;10.80;99.90
14192;DHT22;7177;48.572;7.838;2023-03-19T03:36:10;10.80;99.90
14192;DHT22;7177;48.572;7.838;2023-03-19T03:38:36;10.70;99.90
14192;DHT22;7177;48.572;7.838;2023-03-19T03:41:03;10.60;99.90
14192;DHT22;7177;48.572;7.838;2023-03-19T03:43:29;10.60;99.90
14192;DHT22;7177;48.572;7.838;2023-03-19T03:45:54;10.60;99.90
14192;DHT22;7177;48.572;7.838;2023-03-19T03:48:20;10.60;99.90
14192;DHT22;7177;48.572;7.838;2023-03-19T03:50:46;10.60;99.90
14192;DHT22;7177;48.572;7.838;2023-03-19T03:53:12;10.70;99.90
14192;DHT22;7177;48.572;7.838;2023-03-19T03:55:38;10.70;99.90
14192;DHT22;7177;48.572;7.838;2023-03-19T03:58:04;10.70;99.90
14192;DHT22;7177;48.572;7.838;2023-03-19T04:00:30;10.80;99.90
14192;DHT22;7177;48.572;7.838;2023-03-19T04:02:56;10.80;99.90
14192;DHT22;7177;48.572;7.838;2023-03-19T04:05:22;10.80;99.90
14192;DHT22;7177;48.572;7.838;2023-03-19T04:07:47;10.80;99.90
14192;DHT22;7177;48.572;7.838;2023-03-19T04:10:13;10.80;99.90
14192;DHT22;7177;48.572;7.838;2023-03-19T04:12:39;10.90;99.90
14192;DHT22;7177;48.572;7.838;2023-03-19T04:15:07;10.90;99.90
14192;DHT22;7177;48.572;7.838;2023-03-19T04:17:33;10.90;99.90
14192;DHT22;7177;48.572;7.838;2023-03-19T04:20:00;10.90;99.90
14192;DHT22;7177;48.572;7.838;2023-03-19T04:22:27;10.90;99.90
14192;DHT22;7177;48.572;7.838;2023-03-19T04:24:52;10.90;99.90
14192;DHT22;7177;48.572;7.838;2023-03-19T04:27:18;10.90;99.90
14192;DHT22;7177;48.572;7.838;2023-03-19T04:29:43;10.80;99.90
14192;DHT22;7177;48.572;7.838;2023-03-19T04:32:09;10.80;99.90
14192;DHT22;7177;48.572;7.838;2023-03-19T04:34:35;10.80;99.90
14192;DHT22;7177;48.572;7.838;2023-03-19T04:37:01;10.80;99.90
14192;DHT22;7177;48.572;7.838;2023-03-19T04:39:27;10.80;99.90
14192;DHT22;7177;48.572;7.838;2023-03-19T04:41:53;10.70;99.90
14192;DHT22;7177;48.572;7.838;2023-03-19T04:44:18;10.70;99.90
14192;DHT22;7177;48.572;7.838;2023-03-19T04:46:44;10.70;99.90
14192;DHT22;7177;48.572;7.838;2023-03-19T04:49:11;10.70;99.90
14192;DHT22;7177;48.572;7.838;2023-03-19T04:51:37;10.70;99.90
14192;DHT22;7177;48.572;7.838;2023-03-19T04:54:02;10.70;99.90
14192;DHT22;7177;48.572;7.838;2023-03-19T04:56:29;10.70;99.90
14192;DHT22;7177;48.572;7.838;2023-03-19T04:58:55;10.60;99.90
14192;DHT22;7177;48.572;7.838;2023-03-19T05:01:21;10.60;99.90
14192;DHT22;7177;48.572;7.838;2023-03-19T05:03:46;10.60;99.90
14192;DHT22;7177;48.572;7.838;2023-03-19T05:06:12;10.50;99.90
14192;DHT22;7177;48.572;7.838;2023-03-19T05:08:37;10.50;99.90
14192;DHT22;7177;48.572;7.838;2023-03-19T05:11:03;10.50;99.90
14192;DHT22;7177;48.572;7.838;2023-03-19T05:13:29;10.50;99.90
14192;DHT22;7177;48.572;7.838;2023-03-19T05:15:54;10.50;99.90
14192;DHT22;7177;48.572;7.838;2023-03-19T05:18:21;10.50;99.90
14192;DHT22;7177;48.572;7.838;2023-03-19T05:20:46;10.40;99.90
14192;DHT22;7177;48.572;7.838;2023-03-19T05:23:12;10.40;99.90
14192;DHT22;7177;48.572;7.838;2023-03-19T05:25:38;10.30;99.90
14192;DHT22;7177;48.572;7.838;2023-03-19T05:28:05;10.30;99.90
14192;DHT22;7177;48.572;7.838;2023-03-19T05:30:33;10.20;99.90
14192;DHT22;7177;48.572;7.838;2023-03-19T05:32:59;10.20;99.90
14192;DHT22;7177;48.572;7.838;2023-03-19T05:35:26;10.10;99.90
14192;DHT22;7177;48.572;7.838;2023-03-19T05:37:52;10.10;99.90
14192;DHT22;7177;48.572;7.838;2023-03-19T05:40:18;10.00;99.90
14192;DHT22;7177;48.572;7.838;2023-03-19T05:42:43;10.00;99.90
14192;DHT22;7177;48.572;7.838;2023-03-19T05:45:09;9.90;99.90
14192;DHT22;7177;48.572;7.838;2023-03-19T05:47:35;9.90;99.90
14192;DHT22;7177;48.572;7.838;2023-03-19T05:50:01;9.90;99.90
14192;DHT22;7177;48.572;7.838;2023-03-19T05:52:27;9.80;99.90
14192;DHT22;7177;48.572;7.838;2023-03-19T05:54:52;10.00;99.90
14192;DHT22;7177;48.572;7.838;2023-03-19T05:57:18;10.10;99.90
14192;DHT22;7177;48.572;7.838;2023-03-19T05:59:43;10.10;99.90
14192;DHT22;7177;48.572;7.838;2023-03-19T06:02:09;10.10;99.90
14192;DHT22;7177;48.572;7.838;2023-03-19T06:04:35;10.10;99.90
14192;DHT22;7177;48.572;7.838;2023-03-19T06:07:00;10.10;99.90
14192;DHT22;7177;48.572;7.838;2023-03-19T06:09:26;10.10;99.90
14192;DHT22;7177;48.572;7.838;2023-03-19T06:11:51;10.10;99.90
14192;DHT22;7177;48.572;7.838;2023-03-19T06:14:17;10.10;99.90
14192;DHT22;7177;48.572;7.838;2023-03-19T06:16:42;10.00;99.90
14192;DHT22;7177;48.572;7.838;2023-03-19T06:19:08;10.00;99.90
14192;DHT22;7177;48.572;7.838;2023-03-19T06:21:34;10.00;99.90
14192;DHT22;7177;48.572;7.838;2023-03-19T06:23:59;10.00;99.90
14192;DHT22;7177;48.572;7.838;2023-03-19T06:26:25;10.00;99.90
14192;DHT22;7177;48.572;7.838;2023-03-19T06:28:52;10.00;99.90
14192;DHT22;7177;48.572;7.838;2023-03-19T06:31:17;10.10;99.90
14192;DHT22;7177;48.572;7.838;2023-03-19T06:33:43;10.20;99.90
14192;DHT22;7177;48.572;7.838;2023-03-19T06:36:09;10.20;99.90
14192;DHT22;7177;48.572;7.838;2023-03-19T06:38:34;10.30;99.90
14192;DHT22;7177;48.572;7.838;2023-03-19T06:41:01;10.30;99.90
14192;DHT22;7177;48.572;7.838;2023-03-19T06:43:27;10.40;99.90
14192;DHT22;7177;48.572;7.838;2023-03-19T06:45:52;10.40;99.90
14192;DHT22;7177;48.572;7.838;2023-03-19T06:48:18;10.50;99.90
14192;DHT22;7177;48.572;7.838;2023-03-19T06:50:46;10.50;99.90
14192;DHT22;7177;48.572;7.838;2023-03-19T06:53:13;10.50;99.90
14192;DHT22;7177;48.572;7.838;2023-03-19T06:55:39;10.60;99.90
14192;DHT22;7177;48.572;7.838;2023-03-19T06:58:05;10.60;99.90
14192;DHT22;7177;48.572;7.838;2023-03-19T07:00:31;10.60;99.90
14192;DHT22;7177;48.572;7.838;2023-03-19T07:02:57;10.70;99.90
14192;DHT22;7177;48.572;7.838;2023-03-19T07:05:22;10.70;99.90
14192;DHT22;7177;48.572;7.838;2023-03-19T07:07:48;10.80;99.90
14192;DHT22;7177;48.572;7.838;2023-03-19T07:10:16;10.80;99.90
14192;DHT22;7177;48.572;7.838;2023-03-19T07:12:42;10.80;99.90
14192;DHT22;7177;48.572;7.838;2023-03-19T07:15:07;10.90;99.90
14192;DHT22;7177;48.572;7.838;2023-03-19T07:17:33;11.00;99.90
14192;DHT22;7177;48.572;7.838;2023-03-19T07:19:58;11.00;99.90
14192;DHT22;7177;48.572;7.838;2023-03-19T07:22:24;11.10;99.90
14192;DHT22;7177;48.572;7.838;2023-03-19T07:24:49;11.20;99.90
14192;DHT22;7177;48.572;7.838;2023-03-19T07:27:15;11.30;99.90
14192;DHT22;7177;48.572;7.838;2023-03-19T07:29:41;11.40;99.90
14192;DHT22;7177;48.572;7.838;2023-03-19T07:32:09;11.50;99.90
14192;DHT22;7177;48.572;7.838;2023-03-19T07:34:35;11.60;99.90
14192;DHT22;7177;48.572;7.838;2023-03-19T07:37:01;11.60;99.90
14192;DHT22;7177;48.572;7.838;2023-03-19T07:39:27;11.70;99.90
14192;DHT22;7177;48.572;7.838;2023-03-19T07:41:52;11.80;99.90
14192;DHT22;7177;48.572;7.838;2023-03-19T07:44:18;11.80;99.90
14192;DHT22;7177;48.572;7.838;2023-03-19T07:46:43;11.90;99.90
14192;DHT22;7177;48.572;7.838;2023-03-19T07:49:09;11.90;99.90
14192;DHT22;7177;48.572;7.838;2023-03-19T07:51:34;12.00;99.90
14192;DHT22;7177;48.572;7.838;2023-03-19T07:54:01;12.00;99.90
14192;DHT22;7177;48.572;7.838;2023-03-19T07:56:26;12.10;99.90
14192;DHT22;7177;48.572;7.838;2023-03-19T07:58:52;12.20;99.90
14192;DHT22;7177;48.572;7.838;2023-03-19T08:01:18;12.30;99.90
14192;DHT22;7177;48.572;7.838;2023-03-19T08:03:43;12.30;99.90
14192;DHT22;7177;48.572;7.838;2023-03-19T08:06:09;12.30;99.90
14192;DHT22;7177;48.572;7.838;2023-03-19T08:08:35;12.40;99.90
14192;DHT22;7177;48.572;7.838;2023-03-19T08:11:01;12.50;99.90
14192;DHT22;7177;48.572;7.838;2023-03-19T08:13:27;12.50;99.90
14192;DHT22;7177;48.572;7.838;2023-03-19T08:15:53;12.60;99.90
14192;DHT22;7177;48.572;7.838;2023-03-19T08:18:20;12.60;99.90
14192;DHT22;7177;48.572;7.838;2023-03-19T08:20:46;12.70;99.90
14192;DHT22;7177;48.572;7.838;2023-03-19T08:23:12;12.80;99.90
14192;DHT22;7177;48.572;7.838;2023-03-19T08:25:38;12.90;99.90
14192;DHT22;7177;48.572;7.838;2023-03-19T08:28:03;12.90;99.90
14192;DHT22;7177;48.572;7.838;2023-03-19T08:30:29;13.10;99.90
14192;DHT22;7177;48.572;7.838;2023-03-19T08:32:56;13.10;99.90
14192;DHT22;7177;48.572;7.838;2023-03-19T08:35:22;13.10;99.90
14192;DHT22;7177;48.572;7.838;2023-03-19T08:37:47;13.20;99.90
14192;DHT22;7177;48.572;7.838;2023-03-19T08:40:13;13.30;99.90
14192;DHT22;7177;48.572;7.838;2023-03-19T08:42:38;13.30;99.90
14192;DHT22;7177;48.572;7.838;2023-03-19T08:45:10;13.40;99.90
14192;DHT22;7177;48.572;7.838;2023-03-19T08:47:36;13.50;99.90
14192;DHT22;7177;48.572;7.838;2023-03-19T08:50:03;13.60;99.90
14192;DHT22;7177;48.572;7.838;2023-03-19T08:52:29;13.80;99.90
14192;DHT22;7177;48.572;7.838;2023-03-19T08:54:54;14.00;99.90
14192;DHT22;7177;48.572;7.838;2023-03-19T08:57:20;14.30;99.90
14192;DHT22;7177;48.572;7.838;2023-03-19T08:59:46;14.70;99.90
14192;DHT22;7177;48.572;7.838;2023-03-19T09:02:12;14.80;99.90
14192;DHT22;7177;48.572;7.838;2023-03-19T09:04:41;14.80;99.90
14192;DHT22;7177;48.572;7.838;2023-03-19T09:07:08;14.70;99.90
14192;DHT22;7177;48.572;7.838;2023-03-19T09:09:38;14.80;99.90
14192;DHT22;7177;48.572;7.838;2023-03-19T09:12:03;14.80;99.90
14192;DHT22;7177;48.572;7.838;2023-03-19T09:14:29;14.80;99.90
14192;DHT22;7177;48.572;7.838;2023-03-19T09:16:54;14.80;99.90
14192;DHT22;7177;48.572;7.838;2023-03-19T09:19:20;14.90;99.90
14192;DHT22;7177;48.572;7.838;2023-03-19T09:21:48;15.00;99.90
14192;DHT22;7177;48.572;7.838;2023-03-19T09:24:13;15.10;99.90
14192;DHT22;7177;48.572;7.838;2023-03-19T09:26:39;15.20;99.90
14192;DHT22;7177;48.572;7.838;2023-03-19T09:29:04;15.20;99.90
14192;DHT22;7177;48.572;7.838;2023-03-19T09:31:30;15.20;99.90
14192;DHT22;7177;48.572;7.838;2023-03-19T09:33:55;15.10;99.90
14192;DHT22;7177;48.572;7.838;2023-03-19T09:36:21;15.10;99.90
14192;DHT22;7177;48.572;7.838;2023-03-19T09:38:46;15.10;99.90
14192;DHT22;7177;48.572;7.838;2023-03-19T09:41:26;15.10;99.90
14192;DHT22;7177;48.572;7.838;2023-03-19T09:44:24;15.20;99.90
14192;DHT22;7177;48.572;7.838;2023-03-19T09:47:25;15.20;99.90
14192;DHT22;7177;48.572;7.838;2023-03-19T09:49:53;15.70;99.90
14192;DHT22;7177;48.572;7.838;2023-03-19T09:57:55;16.00;99.90
14192;DHT22;7177;48.572;7.838;2023-03-19T10:03:10;16.40;99.90
14192;DHT22;7177;48.572;7.838;2023-03-19T10:11:15;16.20;99.90
14192;DHT22;7177;48.572;7.838;2023-03-19T10:16:38;15.80;99.90
14192;DHT22;7177;48.572;7.838;2023-03-19T10:19:07;15.90;99.90
14192;DHT22;7177;48.572;7.838;2023-03-19T10:21:48;15.80;99.90
14192;DHT22;7177;48.572;7.838;2023-03-19T10:24:28;15.60;99.90
14192;DHT22;7177;48.572;7.838;2023-03-19T10:26:59;15.50;99.90
14192;DHT22;7177;48.572;7.838;2023-03-19T10:29:26;15.50;99.90
14192;DHT22;7177;48.572;7.838;2023-03-19T10:32:02;15.60;99.90
14192;DHT22;7177;48.572;7.838;2023-03-19T10:34:42;15.60;99.90
14192;DHT22;7177;48.572;7.838;2023-03-19T10:37:22;15.70;99.90
14192;DHT22;7177;48.572;7.838;2023-03-19T10:39:49;15.70;99.90
14192;DHT22;7177;48.572;7.838;2023-03-19T10:45:19;15.80;99.90
14192;DHT22;7177;48.572;7.838;2023-03-19T10:47:45;15.90;99.90
14192;DHT22;7177;48.572;7.838;2023-03-19T10:50:20;15.80;99.90
14192;DHT22;7177;48.572;7.838;2023-03-19T10:52:51;15.80;99.90
14192;DHT22;7177;48.572;7.838;2023-03-19T10:55:25;15.60;99.90
14192;DHT22;7177;48.572;7.838;2023-03-19T10:58:13;15.60;99.90
14192;DHT22;7177;48.572;7.838;2023-03-19T11:00:40;15.50;99.90
14192;DHT22;7177;48.572;7.838;2023-03-19T11:08:34;15.40;99.90
14192;DHT22;7177;48.572;7.838;2023-03-19T11:11:00;15.40;99.90
14192;DHT22;7177;48.572;7.838;2023-03-19T11:13:26;15.40;99.90
14192;DHT22;7177;48.572;7.838;2023-03-19T11:15:53;15.20;99.90
14192;DHT22;7177;48.572;7.838;2023-03-19T11:18:29;15.20;99.90
14192;DHT22;7177;48.572;7.838;2023-03-19T11:21:04;15.00;99.90
14192;DHT22;7177;48.572;7.838;2023-03-19T11:23:38;14.90;99.90
14192;DHT22;7177;48.572;7.838;2023-03-19T11:26:04;14.70;99.90
14192;DHT22;7177;48.572;7.838;2023-03-19T11:28:31;14.60;99.90
14192;DHT22;7177;48.572;7.838;2023-03-19T11:31:18;14.50;99.90
14192;DHT22;7177;48.572;7.838;2023-03-19T11:34:03;14.50;99.90
14192;DHT22;7177;48.572;7.838;2023-03-19T11:39:26;14.70;99.90
14192;DHT22;7177;48.572;7.838;2023-03-19T11:50:25;14.80;99.90
14192;DHT22;7177;48.572;7.838;2023-03-19T11:55:57;14.70;99.90
14192;DHT22;7177;48.572;7.838;2023-03-19T11:58:41;14.80;99.90
14192;DHT22;7177;48.572;7.838;2023-03-19T12:07:09;15.10;99.90
14192;DHT22;7177;48.572;7.838;2023-03-19T12:23:35;15.70;99.90
14192;DHT22;7177;48.572;7.838;2023-03-19T12:26:08;15.60;99.90
14192;DHT22;7177;48.572;7.838;2023-03-19T12:28:46;15.70;99.90
14192;DHT22;7177;48.572;7.838;2023-03-19T12:34:08;15.90;99.90
14192;DHT22;7177;48.572;7.838;2023-03-19T12:36:43;15.90;99.90
14192;DHT22;7177;48.572;7.838;2023-03-19T12:39:16;15.90;99.90
14192;DHT22;7177;48.572;7.838;2023-03-19T12:41:45;15.90;99.90
14192;DHT22;7177;48.572;7.838;2023-03-19T12:46:55;15.90;99.90
14192;DHT22;7177;48.572;7.838;2023-03-19T12:49:23;16.00;99.90
14192;DHT22;7177;48.572;7.838;2023-03-19T12:51:58;16.00;99.90
14192;DHT22;7177;48.572;7.838;2023-03-19T12:54:30;16.10;99.90
14192;DHT22;7177;48.572;7.838;2023-03-19T12:56:59;16.10;99.90
14192;DHT22;7177;48.572;7.838;2023-03-19T12:59:39;16.10;99.90
14192;DHT22;7177;48.572;7.838;2023-03-19T13:02:39;16.00;99.90
14192;DHT22;7177;48.572;7.838;2023-03-19T13:08:16;15.80;99.90
14192;DHT22;7177;48.572;7.838;2023-03-19T13:10:42;15.60;99.90
14192;DHT22;7177;48.572;7.838;2023-03-19T13:16:07;15.30;99.90
14192;DHT22;7177;48.572;7.838;2023-03-19T13:18:46;15.20;99.90
14192;DHT22;7177;48.572;7.838;2023-03-19T13:23:48;15.50;99.90
14192;DHT22;7177;48.572;7.838;2023-03-19T13:26:17;15.50;99.90
14192;DHT22;7177;48.572;7.838;2023-03-19T13:29:08;15.50;99.90
14192;DHT22;7177;48.572;7.838;2023-03-19T13:31:37;15.50;99.90
14192;DHT22;7177;48.572;7.838;2023-03-19T13:34:17;15.50;99.90
14192;DHT22;7177;48.572;7.838;2023-03-19T13:39:17;15.40;99.90
14192;DHT22;7177;48.572;7.838;2023-03-19T13:44:28;15.50;99.90
14192;DHT22;7177;48.572;7.838;2023-03-19T13:47:47;15.50;99.90
14192;DHT22;7177;48.572;7.838;2023-03-19T13:52:50;15.60;99.90
14192;DHT22;7177;48.572;7.838;2023-03-19T13:55:43;15.70;99.90
14192;DHT22;7177;48.572;7.838;2023-03-19T14:01:05;16.10;99.90
14192;DHT22;7177;48.572;7.838;2023-03-19T14:03:33;16.30;99.90
14192;DHT22;7177;48.572;7.838;2023-03-19T14:05:59;16.60;99.90
14192;DHT22;7177;48.572;7.838;2023-03-19T14:08:26;16.60;99.90
14192;DHT22;7177;48.572;7.838;2023-03-19T14:10:56;16.60;99.90
14192;DHT22;7177;48.572;7.838;2023-03-19T14:13:32;16.60;99.90
14192;DHT22;7177;48.572;7.838;2023-03-19T14:16:06;16.50;99.90
14192;DHT22;7177;48.572;7.838;2023-03-19T14:18:32;16.40;99.90
14192;DHT22;7177;48.572;7.838;2023-03-19T14:21:04;16.30;99.90
14192;DHT22;7177;48.572;7.838;2023-03-19T14:23:30;16.20;99.90
14192;DHT22;7177;48.572;7.838;2023-03-19T14:34:12;15.50;99.90
14192;DHT22;7177;48.572;7.838;2023-03-19T14:36:44;15.40;99.90
14192;DHT22;7177;48.572;7.838;2023-03-19T14:39:24;15.20;99.90
14192;DHT22;7177;48.572;7.838;2023-03-19T14:42:02;15.20;99.90
14192;DHT22;7177;48.572;7.838;2023-03-19T14:55:49;14.20;99.90
14192;DHT22;7177;48.572;7.838;2023-03-19T14:58:17;14.00;99.90
14192;DHT22;7177;48.572;7.838;2023-03-19T15:00:48;13.90;99.90
14192;DHT22;7177;48.572;7.838;2023-03-19T15:03:29;13.80;99.90
14192;DHT22;7177;48.572;7.838;2023-03-19T15:06:01;13.80;99.90
14192;DHT22;7177;48.572;7.838;2023-03-19T15:08:30;13.80;99.90
14192;DHT22;7177;48.572;7.838;2023-03-19T15:19:24;13.70;99.90
14192;DHT22;7177;48.572;7.838;2023-03-19T15:21:50;13.60;99.90
14192;DHT22;7177;48.572;7.838;2023-03-19T15:24:16;13.70;99.90
14192;DHT22;7177;48.572;7.838;2023-03-19T15:26:43;13.70;99.90
14192;DHT22;7177;48.572;7.838;2023-03-19T15:29:08;13.50;99.90
14192;DHT22;7177;48.572;7.838;2023-03-19T15:31:48;13.40;99.90
14192;DHT22;7177;48.572;7.838;2023-03-19T15:34:26;13.40;99.90
14192;DHT22;7177;48.572;7.838;2023-03-19T15:37:05;13.40;99.90
14192;DHT22;7177;48.572;7.838;2023-03-19T15:39:36;13.30;99.90
14192;DHT22;7177;48.572;7.838;2023-03-19T15:42:03;13.30;99.90
14192;DHT22;7177;48.572;7.838;2023-03-19T15:44:51;13.30;99.90
14192;DHT22;7177;48.572;7.838;2023-03-19T15:47:22;13.40;99.90
14192;DHT22;7177;48.572;7.838;2023-03-19T15:50:15;13.60;99.90
14192;DHT22;7177;48.572;7.838;2023-03-19T15:52:45;13.70;99.90
14192;DHT22;7177;48.572;7.838;2023-03-19T15:55:13;13.70;99.90
14192;DHT22;7177;48.572;7.838;2023-03-19T15:57:41;13.60;99.90
14192;DHT22;7177;48.572;7.838;2023-03-19T16:00:08;13.60;99.90
14192;DHT22;7177;48.572;7.838;2023-03-19T16:02:38;13.60;99.90
14192;DHT22;7177;48.572;7.838;2023-03-19T16:05:04;13.60;99.90
14192;DHT22;7177;48.572;7.838;2023-03-19T16:10:00;13.50;99.90
14192;DHT22;7177;48.572;7.838;2023-03-19T16:12:42;13.50;99.90
14192;DHT22;7177;48.572;7.838;2023-03-19T16:15:30;13.50;99.90
14192;DHT22;7177;48.572;7.838;2023-03-19T16:18:09;13.40;99.90
14192;DHT22;7177;48.572;7.838;2023-03-19T16:23:33;13.30;99.90
14192;DHT22;7177;48.572;7.838;2023-03-19T16:26:16;13.20;99.90
14192;DHT22;7177;48.572;7.838;2023-03-19T16:31:26;13.00;99.90
14192;DHT22;7177;48.572;7.838;2023-03-19T16:33:54;13.00;99.90
14192;DHT22;7177;48.572;7.838;2023-03-19T16:36:22;13.10;99.90
14192;DHT22;7177;48.572;7.838;2023-03-19T16:38:54;13.10;99.90
14192;DHT22;7177;48.572;7.838;2023-03-19T16:41:30;13.20;99.90
14192;DHT22;7177;48.572;7.838;2023-03-19T16:44:15;13.20;99.90
14192;DHT22;7177;48.572;7.838;2023-03-19T16:46:42;13.20;99.90
14192;DHT22;7177;48.572;7.838;2023-03-19T16:49:07;13.10;99.90
14192;DHT22;7177;48.572;7.838;2023-03-19T16:51:33;13.10;99.90
14192;DHT22;7177;48.572;7.838;2023-03-19T16:53:59;13.10;99.90
14192;DHT22;7177;48.572;7.838;2023-03-19T16:56:24;13.10;99.90
14192;DHT22;7177;48.572;7.838;2023-03-19T16:58:50;13.10;99.90
14192;DHT22;7177;48.572;7.838;2023-03-19T17:01:24;13.10;99.90
14192;DHT22;7177;48.572;7.838;2023-03-19T17:03:50;13.10;99.90
14192;DHT22;7177;48.572;7.838;2023-03-19T17:06:17;13.00;99.90
14192;DHT22;7177;48.572;7.838;2023-03-19T17:08:43;13.00;99.90
14192;DHT22;7177;48.572;7.838;2023-03-19T17:13:51;13.00;99.90
14192;DHT22;7177;48.572;7.838;2023-03-19T17:16:16;13.00;99.90
14192;DHT22;7177;48.572;7.838;2023-03-19T17:18:42;13.00;99.90
14192;DHT22;7177;48.572;7.838;2023-03-19T17:21:13;13.00;99.90
14192;DHT22;7177;48.572;7.838;2023-03-19T17:23:40;13.00;99.90
14192;DHT22;7177;48.572;7.838;2023-03-19T17:26:21;12.90;99.90
14192;DHT22;7177;48.572;7.838;2023-03-19T17:28:47;12.90;99.90
14192;DHT22;7177;48.572;7.838;2023-03-19T17:31:29;12.80;99.90
14192;DHT22;7177;48.572;7.838;2023-03-19T17:34:08;12.60;99.90
14192;DHT22;7177;48.572;7.838;2023-03-19T17:36:35;12.50;99.90
14192;DHT22;7177;48.572;7.838;2023-03-19T17:39:01;12.40;99.90
14192;DHT22;7177;48.572;7.838;2023-03-19T17:41:27;12.20;99.90
14192;DHT22;7177;48.572;7.838;2023-03-19T17:43:54;12.10;99.90
14192;DHT22;7177;48.572;7.838;2023-03-19T17:46:21;12.00;99.90
14192;DHT22;7177;48.572;7.838;2023-03-19T17:48:48;11.90;99.90
14192;DHT22;7177;48.572;7.838;2023-03-19T17:51:15;11.70;99.90
14192;DHT22;7177;48.572;7.838;2023-03-19T17:53:43;11.60;99.90
14192;DHT22;7177;48.572;7.838;2023-03-19T17:56:14;11.60;99.90
14192;DHT22;7177;48.572;7.838;2023-03-19T17:58:41;11.60;99.90
14192;DHT22;7177;48.572;7.838;2023-03-19T18:01:13;11.50;99.90
14192;DHT22;7177;48.572;7.838;2023-03-19T18:03:38;11.40;99.90